首页
METAR-TAF:

METAR-TAF

机场 :

Warren Field Airport

华盛顿, 北卡罗来纳州, 美国

纬度: 35-34-14N, 经度: 077-02-59W, 海拔: 12米

当前天气观测

该预报发布于23分钟前的19:25 UTC
风速4节,风向,有时为08节阵风
温度 25°C
湿度 94%
气压 1021 hPa
能見度: 4.8公里
散云层高于1400英尺
多云层高于4600英尺
阴天层高于5500英尺
大雨

METAR: KOCW 251925Z AUTO 10004G08KT 3SM +RA SCT014 BKN046 OVC055 25/24 A3014 RMK AO2 T02510236

时间: 15:48 (19:48 UTC)


TAF: 丢失

超过4000个机场的气象观测和天气预报(METAR&TAF报告)。

可查询的气象台以黄色和红色小点在地图上表示。

将鼠标移到小点上方,可查看气象台名称。

然后点击查看天气观测和预报。

如需切换地图:点击带黑十字的绿色按钮放大地图;点击带横线的绿色按钮缩小地图;或者点击绿色箭头查看邻近地区的地图。


METAR-TAF: